sensor_id;sensor_type;location;lat;lon;timestamp;temperature;humidity
7232;DHT22;3657;49.630;11.018;2022-10-23T00:01:14;12.70;99.90
7232;DHT22;3657;49.630;11.018;2022-10-23T00:03:42;12.70;99.90
7232;DHT22;3657;49.630;11.018;2022-10-23T00:06:09;12.70;99.90
7232;DHT22;3657;49.630;11.018;2022-10-23T00:08:36;12.60;99.90
7232;DHT22;3657;49.630;11.018;2022-10-23T00:11:06;12.60;99.90
7232;DHT22;3657;49.630;11.018;2022-10-23T00:13:32;12.60;99.90
7232;DHT22;3657;49.630;11.018;2022-10-23T00:15:59;12.60;99.90
7232;DHT22;3657;49.630;11.018;2022-10-23T00:18:27;12.50;99.90
7232;DHT22;3657;49.630;11.018;2022-10-23T00:20:55;12.50;99.90
7232;DHT22;3657;49.630;11.018;2022-10-23T00:23:22;12.50;99.90
7232;DHT22;3657;49.630;11.018;2022-10-23T00:25:49;12.50;99.90
7232;DHT22;3657;49.630;11.018;2022-10-23T00:28:16;12.40;99.90
7232;DHT22;3657;49.630;11.018;2022-10-23T00:30:42;12.40;99.90
7232;DHT22;3657;49.630;11.018;2022-10-23T00:33:09;12.50;99.90
7232;DHT22;3657;49.630;11.018;2022-10-23T00:35:39;12.40;99.90
7232;DHT22;3657;49.630;11.018;2022-10-23T00:38:06;12.40;99.90
7232;DHT22;3657;49.630;11.018;2022-10-23T00:40:34;12.40;99.90
7232;DHT22;3657;49.630;11.018;2022-10-23T00:43:01;12.30;99.90
7232;DHT22;3657;49.630;11.018;2022-10-23T00:45:28;12.30;99.90
7232;DHT22;3657;49.630;11.018;2022-10-23T00:47:58;12.30;99.90
7232;DHT22;3657;49.630;11.018;2022-10-23T00:50:27;12.30;99.90
7232;DHT22;3657;49.630;11.018;2022-10-23T00:52:56;12.30;99.90
7232;DHT22;3657;49.630;11.018;2022-10-23T00:55:26;12.30;99.90
7232;DHT22;3657;49.630;11.018;2022-10-23T00:57:53;12.30;99.90
7232;DHT22;3657;49.630;11.018;2022-10-23T01:00:23;12.20;99.90
7232;DHT22;3657;49.630;11.018;2022-10-23T01:02:50;12.20;99.90
7232;DHT22;3657;49.630;11.018;2022-10-23T01:05:18;12.20;99.90
7232;DHT22;3657;49.630;11.018;2022-10-23T01:07:51;12.20;99.90
7232;DHT22;3657;49.630;11.018;2022-10-23T01:10:28;12.20;99.90
7232;DHT22;3657;49.630;11.018;2022-10-23T01:13:01;12.10;99.90
7232;DHT22;3657;49.630;11.018;2022-10-23T01:15:35;12.10;99.90
7232;DHT22;3657;49.630;11.018;2022-10-23T01:18:09;12.10;99.90
7232;DHT22;3657;49.630;11.018;2022-10-23T01:20:41;12.10;99.90
7232;DHT22;3657;49.630;11.018;2022-10-23T01:23:30;12.10;99.90
7232;DHT22;3657;49.630;11.018;2022-10-23T01:26:17;12.00;99.90
7232;DHT22;3657;49.630;11.018;2022-10-23T01:28:54;12.00;99.90
7232;DHT22;3657;49.630;11.018;2022-10-23T01:31:28;12.00;99.90
7232;DHT22;3657;49.630;11.018;2022-10-23T01:34:02;12.00;99.90
7232;DHT22;3657;49.630;11.018;2022-10-23T01:36:31;12.00;99.90
7232;DHT22;3657;49.630;11.018;2022-10-23T01:39:02;12.00;99.90
7232;DHT22;3657;49.630;11.018;2022-10-23T01:41:32;12.00;99.90
7232;DHT22;3657;49.630;11.018;2022-10-23T01:44:07;11.90;99.90
7232;DHT22;3657;49.630;11.018;2022-10-23T01:46:34;11.90;99.90
7232;DHT22;3657;49.630;11.018;2022-10-23T01:49:03;11.90;99.90
7232;DHT22;3657;49.630;11.018;2022-10-23T01:51:32;11.90;99.90
7232;DHT22;3657;49.630;11.018;2022-10-23T01:54:00;11.90;99.90
7232;DHT22;3657;49.630;11.018;2022-10-23T01:56:30;11.80;99.90
7232;DHT22;3657;49.630;11.018;2022-10-23T01:59:00;11.80;99.90
7232;DHT22;3657;49.630;11.018;2022-10-23T02:01:31;11.80;99.90
7232;DHT22;3657;49.630;11.018;2022-10-23T02:04:00;11.80;99.90
7232;DHT22;3657;49.630;11.018;2022-10-23T02:06:28;11.80;99.90
7232;DHT22;3657;49.630;11.018;2022-10-23T02:08:55;11.70;99.90
7232;DHT22;3657;49.630;11.018;2022-10-23T02:11:22;11.70;99.90
7232;DHT22;3657;49.630;11.018;2022-10-23T02:13:54;11.70;99.90
7232;DHT22;3657;49.630;11.018;2022-10-23T02:16:25;11.70;99.90
7232;DHT22;3657;49.630;11.018;2022-10-23T02:19:01;11.70;99.90
7232;DHT22;3657;49.630;11.018;2022-10-23T02:21:33;11.70;99.90
7232;DHT22;3657;49.630;11.018;2022-10-23T02:24:08;11.60;99.90
7232;DHT22;3657;49.630;11.018;2022-10-23T02:26:40;11.60;99.90
7232;DHT22;3657;49.630;11.018;2022-10-23T02:29:11;11.60;99.90
7232;DHT22;3657;49.630;11.018;2022-10-23T02:31:40;11.60;99.90
7232;DHT22;3657;49.630;11.018;2022-10-23T02:34:08;11.60;99.90
7232;DHT22;3657;49.630;11.018;2022-10-23T02:36:35;11.50;99.90
7232;DHT22;3657;49.630;11.018;2022-10-23T02:39:02;11.50;99.90
7232;DHT22;3657;49.630;11.018;2022-10-23T02:41:37;11.50;99.90
7232;DHT22;3657;49.630;11.018;2022-10-23T02:44:14;11.50;99.90
7232;DHT22;3657;49.630;11.018;2022-10-23T02:46:49;11.50;99.90
7232;DHT22;3657;49.630;11.018;2022-10-23T02:49:24;11.50;99.90
7232;DHT22;3657;49.630;11.018;2022-10-23T02:51:58;11.40;99.90
7232;DHT22;3657;49.630;11.018;2022-10-23T02:54:36;11.40;99.90
7232;DHT22;3657;49.630;11.018;2022-10-23T02:57:14;11.40;99.90
7232;DHT22;3657;49.630;11.018;2022-10-23T02:59:43;11.40;99.90
7232;DHT22;3657;49.630;11.018;2022-10-23T03:02:18;11.40;99.90
7232;DHT22;3657;49.630;11.018;2022-10-23T03:04:49;11.40;99.90
7232;DHT22;3657;49.630;11.018;2022-10-23T03:07:18;11.30;99.90
7232;DHT22;3657;49.630;11.018;2022-10-23T03:09:45;11.30;99.90
7232;DHT22;3657;49.630;11.018;2022-10-23T03:12:12;11.30;99.90
7232;DHT22;3657;49.630;11.018;2022-10-23T03:14:38;11.30;99.90
7232;DHT22;3657;49.630;11.018;2022-10-23T03:17:05;11.30;99.90
7232;DHT22;3657;49.630;11.018;2022-10-23T03:19:32;11.30;99.90
7232;DHT22;3657;49.630;11.018;2022-10-23T03:22:00;11.20;99.90
7232;DHT22;3657;49.630;11.018;2022-10-23T03:24:27;11.20;99.90
7232;DHT22;3657;49.630;11.018;2022-10-23T03:26:53;11.20;99.90
7232;DHT22;3657;49.630;11.018;2022-10-23T03:29:20;11.20;99.90
7232;DHT22;3657;49.630;11.018;2022-10-23T03:31:47;11.10;99.90
7232;DHT22;3657;49.630;11.018;2022-10-23T03:34:14;11.10;99.90
7232;DHT22;3657;49.630;11.018;2022-10-23T03:36:40;11.10;99.90
7232;DHT22;3657;49.630;11.018;2022-10-23T03:39:08;11.10;99.90
7232;DHT22;3657;49.630;11.018;2022-10-23T03:41:35;11.10;99.90
7232;DHT22;3657;49.630;11.018;2022-10-23T03:44:02;11.10;99.90
7232;DHT22;3657;49.630;11.018;2022-10-23T03:46:29;11.10;99.90
7232;DHT22;3657;49.630;11.018;2022-10-23T03:48:55;11.00;99.90
7232;DHT22;3657;49.630;11.018;2022-10-23T03:51:24;11.00;99.90
7232;DHT22;3657;49.630;11.018;2022-10-23T03:53:51;11.00;99.90
7232;DHT22;3657;49.630;11.018;2022-10-23T03:56:19;11.00;99.90
7232;DHT22;3657;49.630;11.018;2022-10-23T03:58:46;11.00;99.90
7232;DHT22;3657;49.630;11.018;2022-10-23T04:01:12;11.00;99.90
7232;DHT22;3657;49.630;11.018;2022-10-23T04:03:39;10.90;99.90
7232;DHT22;3657;49.630;11.018;2022-10-23T04:06:06;10.90;99.90
7232;DHT22;3657;49.630;11.018;2022-10-23T04:08:33;10.90;99.90
7232;DHT22;3657;49.630;11.018;2022-10-23T04:11:00;10.80;99.90
7232;DHT22;3657;49.630;11.018;2022-10-23T04:13:28;10.90;99.90
7232;DHT22;3657;49.630;11.018;2022-10-23T04:15:54;10.80;99.90
7232;DHT22;3657;49.630;11.018;2022-10-23T04:18:21;10.80;99.90
7232;DHT22;3657;49.630;11.018;2022-10-23T04:20:49;10.70;99.90
7232;DHT22;3657;49.630;11.018;2022-10-23T04:23:16;10.60;99.90
7232;DHT22;3657;49.630;11.018;2022-10-23T04:25:43;10.50;99.90
7232;DHT22;3657;49.630;11.018;2022-10-23T04:28:10;10.50;99.90
7232;DHT22;3657;49.630;11.018;2022-10-23T04:30:38;10.40;99.90
7232;DHT22;3657;49.630;11.018;2022-10-23T04:33:06;10.50;99.90
7232;DHT22;3657;49.630;11.018;2022-10-23T04:35:32;10.60;99.90
7232;DHT22;3657;49.630;11.018;2022-10-23T04:37:59;10.60;99.90
7232;DHT22;3657;49.630;11.018;2022-10-23T04:40:26;10.80;99.90
7232;DHT22;3657;49.630;11.018;2022-10-23T04:42:52;10.90;99.90
7232;DHT22;3657;49.630;11.018;2022-10-23T04:45:19;11.00;99.90
7232;DHT22;3657;49.630;11.018;2022-10-23T04:47:47;11.00;99.90
7232;DHT22;3657;49.630;11.018;2022-10-23T04:50:14;11.00;99.90
7232;DHT22;3657;49.630;11.018;2022-10-23T04:52:41;11.00;99.90
7232;DHT22;3657;49.630;11.018;2022-10-23T04:55:08;11.00;99.90
7232;DHT22;3657;49.630;11.018;2022-10-23T04:57:35;11.10;99.90
7232;DHT22;3657;49.630;11.018;2022-10-23T05:00:03;11.10;99.90
7232;DHT22;3657;49.630;11.018;2022-10-23T05:02:30;11.10;99.90
7232;DHT22;3657;49.630;11.018;2022-10-23T05:04:59;11.20;99.90
7232;DHT22;3657;49.630;11.018;2022-10-23T05:07:25;11.20;99.90
7232;DHT22;3657;49.630;11.018;2022-10-23T05:09:52;11.20;99.90
7232;DHT22;3657;49.630;11.018;2022-10-23T05:12:19;11.20;99.90
7232;DHT22;3657;49.630;11.018;2022-10-23T05:14:45;11.20;99.90
7232;DHT22;3657;49.630;11.018;2022-10-23T05:17:15;11.20;99.90
7232;DHT22;3657;49.630;11.018;2022-10-23T05:19:46;11.20;99.90
7232;DHT22;3657;49.630;11.018;2022-10-23T05:22:17;11.20;99.90
7232;DHT22;3657;49.630;11.018;2022-10-23T05:24:44;11.10;99.90
7232;DHT22;3657;49.630;11.018;2022-10-23T05:27:11;11.10;99.90
7232;DHT22;3657;49.630;11.018;2022-10-23T05:29:38;11.10;99.90
7232;DHT22;3657;49.630;11.018;2022-10-23T05:32:06;11.10;99.90
7232;DHT22;3657;49.630;11.018;2022-10-23T05:34:35;11.00;99.90
7232;DHT22;3657;49.630;11.018;2022-10-23T05:37:06;11.00;99.90
7232;DHT22;3657;49.630;11.018;2022-10-23T05:39:34;11.00;99.90
7232;DHT22;3657;49.630;11.018;2022-10-23T05:42:01;11.00;99.90
7232;DHT22;3657;49.630;11.018;2022-10-23T05:44:28;11.00;99.90
7232;DHT22;3657;49.630;11.018;2022-10-23T05:46:55;11.00;99.90
7232;DHT22;3657;49.630;11.018;2022-10-23T05:49:23;11.00;99.90
7232;DHT22;3657;49.630;11.018;2022-10-23T05:51:49;11.00;99.90
7232;DHT22;3657;49.630;11.018;2022-10-23T05:54:16;11.00;99.90
7232;DHT22;3657;49.630;11.018;2022-10-23T05:56:44;10.90;99.90
7232;DHT22;3657;49.630;11.018;2022-10-23T05:59:11;11.00;99.90
7232;DHT22;3657;49.630;11.018;2022-10-23T06:01:38;10.90;99.90
7232;DHT22;3657;49.630;11.018;2022-10-23T06:04:04;10.90;99.90
7232;DHT22;3657;49.630;11.018;2022-10-23T06:06:31;10.90;99.90
7232;DHT22;3657;49.630;11.018;2022-10-23T06:08:58;10.90;99.90
7232;DHT22;3657;49.630;11.018;2022-10-23T06:11:25;11.00;99.90
7232;DHT22;3657;49.630;11.018;2022-10-23T06:13:53;11.00;99.90
7232;DHT22;3657;49.630;11.018;2022-10-23T06:16:21;11.00;99.90
7232;DHT22;3657;49.630;11.018;2022-10-23T06:18:49;11.00;99.90
7232;DHT22;3657;49.630;11.018;2022-10-23T06:21:15;11.00;99.90
7232;DHT22;3657;49.630;11.018;2022-10-23T06:23:44;11.00;99.90
7232;DHT22;3657;49.630;11.018;2022-10-23T06:26:12;11.10;99.90
7232;DHT22;3657;49.630;11.018;2022-10-23T06:28:39;11.10;99.90
7232;DHT22;3657;49.630;11.018;2022-10-23T06:31:09;11.20;99.90
7232;DHT22;3657;49.630;11.018;2022-10-23T06:33:36;11.20;99.90
7232;DHT22;3657;49.630;11.018;2022-10-23T06:36:04;11.30;99.90
7232;DHT22;3657;49.630;11.018;2022-10-23T06:38:32;11.40;99.90
7232;DHT22;3657;49.630;11.018;2022-10-23T06:41:02;11.40;99.90
7232;DHT22;3657;49.630;11.018;2022-10-23T06:43:29;11.50;99.90
7232;DHT22;3657;49.630;11.018;2022-10-23T06:45:55;11.60;99.90
7232;DHT22;3657;49.630;11.018;2022-10-23T06:48:26;11.60;99.90
7232;DHT22;3657;49.630;11.018;2022-10-23T06:50:53;11.60;99.90
7232;DHT22;3657;49.630;11.018;2022-10-23T06:53:20;11.70;99.90
7232;DHT22;3657;49.630;11.018;2022-10-23T06:55:48;11.70;99.90
7232;DHT22;3657;49.630;11.018;2022-10-23T06:58:14;11.70;99.90
7232;DHT22;3657;49.630;11.018;2022-10-23T07:00:41;11.80;99.90
7232;DHT22;3657;49.630;11.018;2022-10-23T07:03:08;11.80;99.90
7232;DHT22;3657;49.630;11.018;2022-10-23T07:05:37;11.80;99.90
7232;DHT22;3657;49.630;11.018;2022-10-23T07:08:04;11.80;99.90
7232;DHT22;3657;49.630;11.018;2022-10-23T07:10:31;11.80;99.90
7232;DHT22;3657;49.630;11.018;2022-10-23T07:12:57;11.80;99.90
7232;DHT22;3657;49.630;11.018;2022-10-23T07:15:25;11.80;99.90
7232;DHT22;3657;49.630;11.018;2022-10-23T07:17:52;11.80;99.90
7232;DHT22;3657;49.630;11.018;2022-10-23T07:20:19;11.80;99.90
7232;DHT22;3657;49.630;11.018;2022-10-23T07:22:50;11.90;99.90
7232;DHT22;3657;49.630;11.018;2022-10-23T07:25:18;11.90;99.90
7232;DHT22;3657;49.630;11.018;2022-10-23T07:27:45;11.90;99.90
7232;DHT22;3657;49.630;11.018;2022-10-23T07:30:13;12.00;99.90
7232;DHT22;3657;49.630;11.018;2022-10-23T07:32:40;12.00;99.90
7232;DHT22;3657;49.630;11.018;2022-10-23T07:35:08;12.10;99.90
7232;DHT22;3657;49.630;11.018;2022-10-23T07:37:36;12.10;99.90
7232;DHT22;3657;49.630;11.018;2022-10-23T07:40:05;12.20;99.90
7232;DHT22;3657;49.630;11.018;2022-10-23T07:42:32;12.30;99.90
7232;DHT22;3657;49.630;11.018;2022-10-23T07:44:59;12.40;99.90
7232;DHT22;3657;49.630;11.018;2022-10-23T07:47:26;12.50;99.90
7232;DHT22;3657;49.630;11.018;2022-10-23T07:49:52;12.60;99.90
7232;DHT22;3657;49.630;11.018;2022-10-23T07:52:19;12.70;99.90
7232;DHT22;3657;49.630;11.018;2022-10-23T07:54:49;12.70;99.90
7232;DHT22;3657;49.630;11.018;2022-10-23T07:57:18;12.80;99.90
7232;DHT22;3657;49.630;11.018;2022-10-23T07:59:45;13.00;99.90
7232;DHT22;3657;49.630;11.018;2022-10-23T08:02:13;13.00;99.90
7232;DHT22;3657;49.630;11.018;2022-10-23T08:04:39;13.10;99.90
7232;DHT22;3657;49.630;11.018;2022-10-23T08:07:06;13.20;99.90
7232;DHT22;3657;49.630;11.018;2022-10-23T08:09:33;13.30;99.90
7232;DHT22;3657;49.630;11.018;2022-10-23T08:12:02;13.40;99.90
7232;DHT22;3657;49.630;11.018;2022-10-23T08:14:30;13.40;99.90
7232;DHT22;3657;49.630;11.018;2022-10-23T08:16:57;13.50;99.90
7232;DHT22;3657;49.630;11.018;2022-10-23T08:19:24;13.50;99.90
7232;DHT22;3657;49.630;11.018;2022-10-23T08:21:50;13.50;99.90
7232;DHT22;3657;49.630;11.018;2022-10-23T08:24:19;13.60;99.90
7232;DHT22;3657;49.630;11.018;2022-10-23T08:26:48;13.60;99.90
7232;DHT22;3657;49.630;11.018;2022-10-23T08:29:15;13.70;99.90
7232;DHT22;3657;49.630;11.018;2022-10-23T08:31:43;13.80;99.90
7232;DHT22;3657;49.630;11.018;2022-10-23T08:34:10;13.90;99.90
7232;DHT22;3657;49.630;11.018;2022-10-23T08:36:37;14.00;99.90
7232;DHT22;3657;49.630;11.018;2022-10-23T08:39:05;14.20;99.90
7232;DHT22;3657;49.630;11.018;2022-10-23T08:41:34;14.40;99.90
7232;DHT22;3657;49.630;11.018;2022-10-23T08:44:08;14.50;99.90
7232;DHT22;3657;49.630;11.018;2022-10-23T08:46:39;14.60;99.90
7232;DHT22;3657;49.630;11.018;2022-10-23T08:49:19;14.80;99.90
7232;DHT22;3657;49.630;11.018;2022-10-23T08:51:52;14.80;99.90
7232;DHT22;3657;49.630;11.018;2022-10-23T08:54:23;14.80;99.90
7232;DHT22;3657;49.630;11.018;2022-10-23T08:56:53;14.90;99.90
7232;DHT22;3657;49.630;11.018;2022-10-23T08:59:26;14.90;99.90
7232;DHT22;3657;49.630;11.018;2022-10-23T09:01:59;14.90;99.90
7232;DHT22;3657;49.630;11.018;2022-10-23T09:04:29;14.90;99.90
7232;DHT22;3657;49.630;11.018;2022-10-23T09:07:01;15.00;99.90
7232;DHT22;3657;49.630;11.018;2022-10-23T09:09:41;15.20;99.90
7232;DHT22;3657;49.630;11.018;2022-10-23T09:12:14;15.40;99.90
7232;DHT22;3657;49.630;11.018;2022-10-23T09:14:54;15.50;99.90
7232;DHT22;3657;49.630;11.018;2022-10-23T09:17:24;15.60;99.90
7232;DHT22;3657;49.630;11.018;2022-10-23T09:19:58;15.60;99.90
7232;DHT22;3657;49.630;11.018;2022-10-23T09:22:26;15.70;99.90
7232;DHT22;3657;49.630;11.018;2022-10-23T09:24:53;15.70;99.90
7232;DHT22;3657;49.630;11.018;2022-10-23T09:27:20;15.70;99.90
7232;DHT22;3657;49.630;11.018;2022-10-23T09:29:48;15.80;99.90
7232;DHT22;3657;49.630;11.018;2022-10-23T09:32:15;16.00;99.90
7232;DHT22;3657;49.630;11.018;2022-10-23T09:34:50;16.20;99.90
7232;DHT22;3657;49.630;11.018;2022-10-23T09:37:23;16.50;99.90
7232;DHT22;3657;49.630;11.018;2022-10-23T09:40:15;16.80;99.90
7232;DHT22;3657;49.630;11.018;2022-10-23T09:42:55;16.90;99.90
7232;DHT22;3657;49.630;11.018;2022-10-23T09:45:28;17.00;99.90
7232;DHT22;3657;49.630;11.018;2022-10-23T09:48:07;17.20;99.90
7232;DHT22;3657;49.630;11.018;2022-10-23T09:50:36;17.50;99.90
7232;DHT22;3657;49.630;11.018;2022-10-23T09:53:04;17.80;99.90
7232;DHT22;3657;49.630;11.018;2022-10-23T09:55:31;18.00;99.90
7232;DHT22;3657;49.630;11.018;2022-10-23T09:57:58;18.20;99.90
7232;DHT22;3657;49.630;11.018;2022-10-23T10:00:26;18.40;99.90
7232;DHT22;3657;49.630;11.018;2022-10-23T10:02:58;18.50;99.90
7232;DHT22;3657;49.630;11.018;2022-10-23T10:05:27;18.50;99.90
7232;DHT22;3657;49.630;11.018;2022-10-23T10:08:01;18.60;99.90
7232;DHT22;3657;49.630;11.018;2022-10-23T10:10:34;18.50;99.90
7232;DHT22;3657;49.630;11.018;2022-10-23T10:13:05;18.40;99.90
7232;DHT22;3657;49.630;11.018;2022-10-23T10:15:37;18.50;99.90
7232;DHT22;3657;49.630;11.018;2022-10-23T10:18:14;18.70;99.90
7232;DHT22;3657;49.630;11.018;2022-10-23T10:21:04;18.70;99.90
7232;DHT22;3657;49.630;11.018;2022-10-23T10:23:39;18.70;99.90
7232;DHT22;3657;49.630;11.018;2022-10-23T10:26:21;18.80;99.90
7232;DHT22;3657;49.630;11.018;2022-10-23T10:29:02;19.00;99.90
7232;DHT22;3657;49.630;11.018;2022-10-23T10:31:38;19.20;99.90
7232;DHT22;3657;49.630;11.018;2022-10-23T10:34:12;19.30;99.90
7232;DHT22;3657;49.630;11.018;2022-10-23T10:36:49;19.40;99.90
7232;DHT22;3657;49.630;11.018;2022-10-23T10:39:26;19.40;99.90
7232;DHT22;3657;49.630;11.018;2022-10-23T10:42:18;19.40;99.90
7232;DHT22;3657;49.630;11.018;2022-10-23T10:45:07;19.60;99.90
7232;DHT22;3657;49.630;11.018;2022-10-23T10:47:47;20.00;99.90
7232;DHT22;3657;49.630;11.018;2022-10-23T10:50:20;19.80;99.90
7232;DHT22;3657;49.630;11.018;2022-10-23T10:52:55;19.80;99.90
7232;DHT22;3657;49.630;11.018;2022-10-23T10:55:27;19.80;99.90
7232;DHT22;3657;49.630;11.018;2022-10-23T10:57:58;19.80;99.90
7232;DHT22;3657;49.630;11.018;2022-10-23T11:00:30;19.80;99.90
7232;DHT22;3657;49.630;11.018;2022-10-23T11:03:01;19.60;99.90
7232;DHT22;3657;49.630;11.018;2022-10-23T11:05:31;19.50;99.90
7232;DHT22;3657;49.630;11.018;2022-10-23T11:08:06;19.50;99.90
7232;DHT22;3657;49.630;11.018;2022-10-23T11:10:40;19.60;99.90
7232;DHT22;3657;49.630;11.018;2022-10-23T11:13:23;20.00;99.90
7232;DHT22;3657;49.630;11.018;2022-10-23T11:15:51;20.20;99.90
7232;DHT22;3657;49.630;11.018;2022-10-23T11:18:24;20.20;99.90
7232;DHT22;3657;49.630;11.018;2022-10-23T11:20:58;20.20;99.90
7232;DHT22;3657;49.630;11.018;2022-10-23T11:23:58;20.00;99.90
7232;DHT22;3657;49.630;11.018;2022-10-23T11:26:39;19.80;99.90
7232;DHT22;3657;49.630;11.018;2022-10-23T11:29:29;20.00;99.90
7232;DHT22;3657;49.630;11.018;2022-10-23T11:32:13;20.20;99.90
7232;DHT22;3657;49.630;11.018;2022-10-23T11:34:53;20.40;99.90
7232;DHT22;3657;49.630;11.018;2022-10-23T11:37:23;20.60;99.90
7232;DHT22;3657;49.630;11.018;2022-10-23T11:40:02;20.60;99.90
7232;DHT22;3657;49.630;11.018;2022-10-23T11:42:46;20.70;99.90
7232;DHT22;3657;49.630;11.018;2022-10-23T11:45:32;20.70;99.90
7232;DHT22;3657;49.630;11.018;2022-10-23T11:48:01;20.50;99.90
7232;DHT22;3657;49.630;11.018;2022-10-23T11:50:33;20.30;99.90
7232;DHT22;3657;49.630;11.018;2022-10-23T11:53:02;20.20;99.90
7232;DHT22;3657;49.630;11.018;2022-10-23T11:55:36;20.20;99.90
7232;DHT22;3657;49.630;11.018;2022-10-23T11:58:18;20.10;99.90
7232;DHT22;3657;49.630;11.018;2022-10-23T12:00:55;20.00;99.90
7232;DHT22;3657;49.630;11.018;2022-10-23T12:03:26;20.00;99.90
7232;DHT22;3657;49.630;11.018;2022-10-23T12:05:58;19.90;99.90
7232;DHT22;3657;49.630;11.018;2022-10-23T12:08:28;19.80;99.90
7232;DHT22;3657;49.630;11.018;2022-10-23T12:10:55;19.80;99.90
7232;DHT22;3657;49.630;11.018;2022-10-23T12:13:43;19.80;99.90
7232;DHT22;3657;49.630;11.018;2022-10-23T12:16:12;19.80;99.90
7232;DHT22;3657;49.630;11.018;2022-10-23T12:18:47;19.60;99.90
7232;DHT22;3657;49.630;11.018;2022-10-23T12:21:17;19.50;99.90
7232;DHT22;3657;49.630;11.018;2022-10-23T12:24:07;19.50;99.90
7232;DHT22;3657;49.630;11.018;2022-10-23T12:26:46;19.50;99.90
7232;DHT22;3657;49.630;11.018;2022-10-23T12:29:27;19.40;99.90
7232;DHT22;3657;49.630;11.018;2022-10-23T12:32:04;19.40;99.90
7232;DHT22;3657;49.630;11.018;2022-10-23T12:34:41;19.50;99.90
7232;DHT22;3657;49.630;11.018;2022-10-23T12:37:34;19.50;99.90
7232;DHT22;3657;49.630;11.018;2022-10-23T12:40:07;19.40;99.90
7232;DHT22;3657;49.630;11.018;2022-10-23T12:42:35;19.50;99.90
7232;DHT22;3657;49.630;11.018;2022-10-23T12:45:07;19.50;99.90
7232;DHT22;3657;49.630;11.018;2022-10-23T12:47:42;19.50;99.90
7232;DHT22;3657;49.630;11.018;2022-10-23T12:50:17;19.60;99.90
7232;DHT22;3657;49.630;11.018;2022-10-23T12:52:50;19.60;99.90
7232;DHT22;3657;49.630;11.018;2022-10-23T12:55:17;19.60;99.90
7232;DHT22;3657;49.630;11.018;2022-10-23T12:57:44;19.50;99.90
7232;DHT22;3657;49.630;11.018;2022-10-23T13:00:14;19.50;99.90
7232;DHT22;3657;49.630;11.018;2022-10-23T13:02:43;19.40;99.90
7232;DHT22;3657;49.630;11.018;2022-10-23T13:05:13;19.50;99.90
7232;DHT22;3657;49.630;11.018;2022-10-23T13:07:44;19.50;99.90
7232;DHT22;3657;49.630;11.018;2022-10-23T13:10:13;19.50;99.90
7232;DHT22;3657;49.630;11.018;2022-10-23T13:12:42;19.40;99.90
7232;DHT22;3657;49.630;11.018;2022-10-23T13:15:15;19.40;99.90
7232;DHT22;3657;49.630;11.018;2022-10-23T13:17:45;19.30;99.90
7232;DHT22;3657;49.630;11.018;2022-10-23T13:20:20;19.30;99.90
7232;DHT22;3657;49.630;11.018;2022-10-23T13:22:49;19.20;99.90
7232;DHT22;3657;49.630;11.018;2022-10-23T13:25:22;19.30;99.90
7232;DHT22;3657;49.630;11.018;2022-10-23T13:27:49;19.20;99.90
7232;DHT22;3657;49.630;11.018;2022-10-23T13:30:27;19.20;99.90
7232;DHT22;3657;49.630;11.018;2022-10-23T13:32:55;19.20;99.90
7232;DHT22;3657;49.630;11.018;2022-10-23T13:35:23;19.00;99.90
7232;DHT22;3657;49.630;11.018;2022-10-23T13:37:49;19.00;99.90
7232;DHT22;3657;49.630;11.018;2022-10-23T13:40:20;19.00;99.90
7232;DHT22;3657;49.630;11.018;2022-10-23T13:42:49;18.90;99.90
7232;DHT22;3657;49.630;11.018;2022-10-23T13:45:19;18.90;99.90
7232;DHT22;3657;49.630;11.018;2022-10-23T13:47:46;18.90;99.90
7232;DHT22;3657;49.630;11.018;2022-10-23T13:50:15;18.90;99.90
7232;DHT22;3657;49.630;11.018;2022-10-23T13:52:41;18.90;99.90
7232;DHT22;3657;49.630;11.018;2022-10-23T13:55:17;18.90;99.90
7232;DHT22;3657;49.630;11.018;2022-10-23T13:57:45;19.00;99.90
7232;DHT22;3657;49.630;11.018;2022-10-23T14:00:12;19.10;99.90
7232;DHT22;3657;49.630;11.018;2022-10-23T14:02:41;19.10;99.90
7232;DHT22;3657;49.630;11.018;2022-10-23T14:05:15;19.00;99.90
7232;DHT22;3657;49.630;11.018;2022-10-23T14:07:42;19.10;99.90
7232;DHT22;3657;49.630;11.018;2022-10-23T14:10:08;19.10;99.90
7232;DHT22;3657;49.630;11.018;2022-10-23T14:12:38;19.10;99.90
7232;DHT22;3657;49.630;11.018;2022-10-23T14:15:06;19.10;99.90
7232;DHT22;3657;49.630;11.018;2022-10-23T14:17:33;19.00;99.90
7232;DHT22;3657;49.630;11.018;2022-10-23T14:20:00;19.00;99.90
7232;DHT22;3657;49.630;11.018;2022-10-23T14:22:28;18.90;99.90
7232;DHT22;3657;49.630;11.018;2022-10-23T14:24:55;18.80;99.90
7232;DHT22;3657;49.630;11.018;2022-10-23T14:27:22;18.80;99.90
7232;DHT22;3657;49.630;11.018;2022-10-23T14:29:48;18.80;99.90
7232;DHT22;3657;49.630;11.018;2022-10-23T14:32:16;18.80;99.90
7232;DHT22;3657;49.630;11.018;2022-10-23T14:34:43;18.70;99.90
7232;DHT22;3657;49.630;11.018;2022-10-23T14:37:14;18.70;99.90
7232;DHT22;3657;49.630;11.018;2022-10-23T14:39:43;18.60;99.90
7232;DHT22;3657;49.630;11.018;2022-10-23T14:42:10;18.60;99.90
7232;DHT22;3657;49.630;11.018;2022-10-23T14:44:37;18.60;99.90
7232;DHT22;3657;49.630;11.018;2022-10-23T14:47:04;18.50;99.90
7232;DHT22;3657;49.630;11.018;2022-10-23T14:49:31;18.50;99.90
7232;DHT22;3657;49.630;11.018;2022-10-23T14:52:00;18.40;99.90
7232;DHT22;3657;49.630;11.018;2022-10-23T14:54:26;18.40;99.90
7232;DHT22;3657;49.630;11.018;2022-10-23T14:56:55;18.40;99.90
7232;DHT22;3657;49.630;11.018;2022-10-23T14:59:22;18.20;99.90
7232;DHT22;3657;49.630;11.018;2022-10-23T15:01:48;18.20;99.90
7232;DHT22;3657;49.630;11.018;2022-10-23T15:04:15;18.00;99.90
7232;DHT22;3657;49.630;11.018;2022-10-23T15:06:42;18.00;99.90
7232;DHT22;3657;49.630;11.018;2022-10-23T15:09:09;18.10;99.90
7232;DHT22;3657;49.630;11.018;2022-10-23T15:11:36;18.10;99.90
7232;DHT22;3657;49.630;11.018;2022-10-23T15:14:04;18.00;99.90
7232;DHT22;3657;49.630;11.018;2022-10-23T15:16:31;18.00;99.90
7232;DHT22;3657;49.630;11.018;2022-10-23T15:18:58;18.00;99.90
7232;DHT22;3657;49.630;11.018;2022-10-23T15:21:24;18.00;99.90
7232;DHT22;3657;49.630;11.018;2022-10-23T15:23:51;17.90;99.90
7232;DHT22;3657;49.630;11.018;2022-10-23T15:26:20;17.90;99.90
7232;DHT22;3657;49.630;11.018;2022-10-23T15:28:52;17.80;99.90
7232;DHT22;3657;49.630;11.018;2022-10-23T15:31:42;17.80;99.90
7232;DHT22;3657;49.630;11.018;2022-10-23T15:34:10;17.80;99.90
7232;DHT22;3657;49.630;11.018;2022-10-23T15:36:38;17.70;99.90
7232;DHT22;3657;49.630;11.018;2022-10-23T15:39:06;17.70;99.90
7232;DHT22;3657;49.630;11.018;2022-10-23T15:41:34;17.70;99.90
7232;DHT22;3657;49.630;11.018;2022-10-23T15:44:02;17.60;99.90
7232;DHT22;3657;49.630;11.018;2022-10-23T15:46:29;17.50;99.90
7232;DHT22;3657;49.630;11.018;2022-10-23T15:48:57;17.40;99.90
7232;DHT22;3657;49.630;11.018;2022-10-23T15:51:24;17.40;99.90
7232;DHT22;3657;49.630;11.018;2022-10-23T15:53:51;17.30;99.90
7232;DHT22;3657;49.630;11.018;2022-10-23T15:56:18;17.30;99.90
7232;DHT22;3657;49.630;11.018;2022-10-23T15:58:44;17.30;99.90
7232;DHT22;3657;49.630;11.018;2022-10-23T16:01:11;17.30;99.90
7232;DHT22;3657;49.630;11.018;2022-10-23T16:03:38;17.30;99.90